Terminal Aerodrome Forecast
Issued by NWS Rapid City, SD

Home | Current Version | Previous Version | Text Only | Print | Product List | Glossary Off
Versions: 1 2 3 4 5 6 7 8 9 10 11 12 13 14 15 16 17 18 19 20 21 22 23 24 25

797
FTUS43 KUNR 100158 AAA
TAFRAP
TAF AMD
KRAP 100158Z 1002/1024 05006KT P6SM -SN OVC010
     FM100700 12005KT 2SM -SN OVC008
     FM102000 14012KT P6SM OVC015=

USA.gov is the U.S. government's official web portal to all federal, state and local government web resources and services.